sensor_id;sensor_type;location;lat;lon;timestamp;temperature;humidity
22379;DHT22;11357;49.990;7.370;2024-03-06T00:07:33;5.80;90.90
22379;DHT22;11357;49.990;7.370;2024-03-06T00:09:59;5.70;90.80
22379;DHT22;11357;49.990;7.370;2024-03-06T00:33:33;5.70;90.50
22379;DHT22;11357;49.990;7.370;2024-03-06T00:35:59;5.70;90.50
22379;DHT22;11357;49.990;7.370;2024-03-06T00:38:25;5.70;90.50
22379;DHT22;11357;49.990;7.370;2024-03-06T00:40:50;5.60;90.50
22379;DHT22;11357;49.990;7.370;2024-03-06T01:19:50;5.20;90.60
22379;DHT22;11357;49.990;7.370;2024-03-06T01:22:16;5.20;90.60
22379;DHT22;11357;49.990;7.370;2024-03-06T01:24:42;5.20;90.70
22379;DHT22;11357;49.990;7.370;2024-03-06T01:27:08;5.20;90.70
22379;DHT22;11357;49.990;7.370;2024-03-06T01:29:34;5.30;90.70
22379;DHT22;11357;49.990;7.370;2024-03-06T01:31:59;5.20;90.60
22379;DHT22;11357;49.990;7.370;2024-03-06T01:48:31;5.00;90.70
22379;DHT22;11357;49.990;7.370;2024-03-06T01:50:59;5.00;90.80
22379;DHT22;11357;49.990;7.370;2024-03-06T01:53:50;5.00;90.80
22379;DHT22;11357;49.990;7.370;2024-03-06T01:56:35;5.00;90.90
22379;DHT22;11357;49.990;7.370;2024-03-06T01:59:02;5.10;90.90
22379;DHT22;11357;49.990;7.370;2024-03-06T02:01:30;5.10;90.90
22379;DHT22;11357;49.990;7.370;2024-03-06T02:03:56;5.10;90.90
22379;DHT22;11357;49.990;7.370;2024-03-06T02:06:22;5.20;90.90
22379;DHT22;11357;49.990;7.370;2024-03-06T02:08:48;5.10;90.80
22379;DHT22;11357;49.990;7.370;2024-03-06T02:11:14;5.10;90.80
22379;DHT22;11357;49.990;7.370;2024-03-06T02:13:41;5.20;90.90
22379;DHT22;11357;49.990;7.370;2024-03-06T02:16:07;5.20;90.90
22379;DHT22;11357;49.990;7.370;2024-03-06T02:18:33;5.20;90.80
22379;DHT22;11357;49.990;7.370;2024-03-06T02:20:58;5.20;90.80
22379;DHT22;11357;49.990;7.370;2024-03-06T02:23:24;5.10;90.80
22379;DHT22;11357;49.990;7.370;2024-03-06T02:25:50;5.10;90.70
22379;DHT22;11357;49.990;7.370;2024-03-06T02:28:16;5.00;90.70
22379;DHT22;11357;49.990;7.370;2024-03-06T02:30:43;5.00;90.70
22379;DHT22;11357;49.990;7.370;2024-03-06T02:56:28;4.80;90.50
22379;DHT22;11357;49.990;7.370;2024-03-06T02:58:53;4.80;90.40
22379;DHT22;11357;49.990;7.370;2024-03-06T03:01:20;4.70;90.50
22379;DHT22;11357;49.990;7.370;2024-03-06T03:03:45;4.60;90.50
22379;DHT22;11357;49.990;7.370;2024-03-06T03:06:12;4.50;90.60
22379;DHT22;11357;49.990;7.370;2024-03-06T03:08:39;4.50;90.60
22379;DHT22;11357;49.990;7.370;2024-03-06T03:11:06;4.50;90.70
22379;DHT22;11357;49.990;7.370;2024-03-06T03:13:31;4.50;90.70
22379;DHT22;11357;49.990;7.370;2024-03-06T03:15:57;4.50;90.70
22379;DHT22;11357;49.990;7.370;2024-03-06T03:18:23;4.50;90.80
22379;DHT22;11357;49.990;7.370;2024-03-06T03:20:49;4.50;90.80
22379;DHT22;11357;49.990;7.370;2024-03-06T03:23:14;4.50;90.80
22379;DHT22;11357;49.990;7.370;2024-03-06T03:25:47;4.40;90.80
22379;DHT22;11357;49.990;7.370;2024-03-06T03:28:14;4.40;90.90
22379;DHT22;11357;49.990;7.370;2024-03-06T03:30:39;4.40;90.90
22379;DHT22;11357;49.990;7.370;2024-03-06T03:33:05;4.50;90.90
22379;DHT22;11357;49.990;7.370;2024-03-06T03:35:31;4.50;90.90
22379;DHT22;11357;49.990;7.370;2024-03-06T03:37:57;4.50;90.80
22379;DHT22;11357;49.990;7.370;2024-03-06T03:40:23;4.50;90.80
22379;DHT22;11357;49.990;7.370;2024-03-06T03:42:48;4.60;90.80
22379;DHT22;11357;49.990;7.370;2024-03-06T03:45:14;4.60;90.70
22379;DHT22;11357;49.990;7.370;2024-03-06T03:47:40;4.60;90.70
22379;DHT22;11357;49.990;7.370;2024-03-06T03:50:08;4.50;90.80
22379;DHT22;11357;49.990;7.370;2024-03-06T03:52:34;4.60;90.90
22379;DHT22;11357;49.990;7.370;2024-03-06T03:55:00;4.60;90.90
22379;DHT22;11357;49.990;7.370;2024-03-06T03:57:26;4.60;90.90
22379;DHT22;11357;49.990;7.370;2024-03-06T03:59:51;4.70;90.90
22379;DHT22;11357;49.990;7.370;2024-03-06T04:02:17;4.70;90.80
22379;DHT22;11357;49.990;7.370;2024-03-06T04:04:43;4.70;90.80
22379;DHT22;11357;49.990;7.370;2024-03-06T04:07:09;4.60;90.70
22379;DHT22;11357;49.990;7.370;2024-03-06T04:09:34;4.60;90.80
22379;DHT22;11357;49.990;7.370;2024-03-06T04:12:04;4.50;90.90
22379;DHT22;11357;49.990;7.370;2024-03-06T04:14:30;4.50;91.00
22379;DHT22;11357;49.990;7.370;2024-03-06T04:16:56;4.50;91.10
22379;DHT22;11357;49.990;7.370;2024-03-06T04:19:22;4.50;91.20
22379;DHT22;11357;49.990;7.370;2024-03-06T04:21:47;4.60;91.20
22379;DHT22;11357;49.990;7.370;2024-03-06T04:24:13;4.60;91.20
22379;DHT22;11357;49.990;7.370;2024-03-06T04:26:38;4.70;91.30
22379;DHT22;11357;49.990;7.370;2024-03-06T04:29:04;4.70;91.20
22379;DHT22;11357;49.990;7.370;2024-03-06T04:31:30;4.80;91.20
22379;DHT22;11357;49.990;7.370;2024-03-06T04:33:55;4.70;91.20
22379;DHT22;11357;49.990;7.370;2024-03-06T04:36:21;4.60;91.20
22379;DHT22;11357;49.990;7.370;2024-03-06T04:38:47;4.60;91.20
22379;DHT22;11357;49.990;7.370;2024-03-06T04:41:12;4.50;91.20
22379;DHT22;11357;49.990;7.370;2024-03-06T04:43:38;4.60;91.30
22379;DHT22;11357;49.990;7.370;2024-03-06T04:46:04;4.60;91.20
22379;DHT22;11357;49.990;7.370;2024-03-06T04:48:30;4.70;91.20
22379;DHT22;11357;49.990;7.370;2024-03-06T04:50:55;4.70;91.20
22379;DHT22;11357;49.990;7.370;2024-03-06T04:53:21;4.80;91.20
22379;DHT22;11357;49.990;7.370;2024-03-06T04:55:47;4.80;91.10
22379;DHT22;11357;49.990;7.370;2024-03-06T04:58:13;4.80;91.10
22379;DHT22;11357;49.990;7.370;2024-03-06T05:00:38;4.80;91.10
22379;DHT22;11357;49.990;7.370;2024-03-06T05:03:04;4.80;91.10
22379;DHT22;11357;49.990;7.370;2024-03-06T05:05:30;4.90;91.10
22379;DHT22;11357;49.990;7.370;2024-03-06T05:07:57;4.90;91.10
22379;DHT22;11357;49.990;7.370;2024-03-06T05:10:23;4.90;91.10
22379;DHT22;11357;49.990;7.370;2024-03-06T05:12:49;4.90;91.20
22379;DHT22;11357;49.990;7.370;2024-03-06T05:15:16;4.90;91.20
22379;DHT22;11357;49.990;7.370;2024-03-06T05:17:41;4.90;91.30
22379;DHT22;11357;49.990;7.370;2024-03-06T05:20:08;4.90;91.40
22379;DHT22;11357;49.990;7.370;2024-03-06T05:22:33;5.00;91.50
22379;DHT22;11357;49.990;7.370;2024-03-06T05:24:59;5.00;91.60
22379;DHT22;11357;49.990;7.370;2024-03-06T05:27:25;5.10;91.60
22379;DHT22;11357;49.990;7.370;2024-03-06T05:29:51;5.10;91.60
22379;DHT22;11357;49.990;7.370;2024-03-06T05:32:17;5.10;91.60
22379;DHT22;11357;49.990;7.370;2024-03-06T05:34:43;5.10;91.70
22379;DHT22;11357;49.990;7.370;2024-03-06T05:37:10;5.10;91.70
22379;DHT22;11357;49.990;7.370;2024-03-06T05:39:35;5.20;91.70
22379;DHT22;11357;49.990;7.370;2024-03-06T05:42:03;5.20;91.70
22379;DHT22;11357;49.990;7.370;2024-03-06T05:44:30;5.30;91.60
22379;DHT22;11357;49.990;7.370;2024-03-06T05:46:57;5.30;91.60
22379;DHT22;11357;49.990;7.370;2024-03-06T05:49:23;5.30;91.60
22379;DHT22;11357;49.990;7.370;2024-03-06T05:51:49;5.20;91.60
22379;DHT22;11357;49.990;7.370;2024-03-06T05:54:15;5.20;91.70
22379;DHT22;11357;49.990;7.370;2024-03-06T05:56:40;5.20;91.80
22379;DHT22;11357;49.990;7.370;2024-03-06T05:59:07;5.20;91.90
22379;DHT22;11357;49.990;7.370;2024-03-06T06:01:34;5.20;91.90
22379;DHT22;11357;49.990;7.370;2024-03-06T06:04:01;5.20;91.90
22379;DHT22;11357;49.990;7.370;2024-03-06T06:06:26;5.20;91.90
22379;DHT22;11357;49.990;7.370;2024-03-06T06:08:52;5.20;91.90
22379;DHT22;11357;49.990;7.370;2024-03-06T06:11:18;5.30;91.90
22379;DHT22;11357;49.990;7.370;2024-03-06T06:13:43;5.30;91.90
22379;DHT22;11357;49.990;7.370;2024-03-06T06:16:09;5.40;91.90
22379;DHT22;11357;49.990;7.370;2024-03-06T06:18:35;5.40;91.90
22379;DHT22;11357;49.990;7.370;2024-03-06T06:21:00;5.40;91.90
22379;DHT22;11357;49.990;7.370;2024-03-06T06:23:26;5.50;91.90
22379;DHT22;11357;49.990;7.370;2024-03-06T06:25:52;5.50;91.80
22379;DHT22;11357;49.990;7.370;2024-03-06T06:28:18;5.50;91.80
22379;DHT22;11357;49.990;7.370;2024-03-06T06:30:43;5.60;91.80
22379;DHT22;11357;49.990;7.370;2024-03-06T06:33:09;5.60;91.80
22379;DHT22;11357;49.990;7.370;2024-03-06T06:35:35;5.70;91.70
22379;DHT22;11357;49.990;7.370;2024-03-06T06:38:01;5.70;91.70
22379;DHT22;11357;49.990;7.370;2024-03-06T06:40:27;5.70;91.60
22379;DHT22;11357;49.990;7.370;2024-03-06T06:42:55;5.70;91.70
22379;DHT22;11357;49.990;7.370;2024-03-06T06:45:21;5.70;91.70
22379;DHT22;11357;49.990;7.370;2024-03-06T06:47:48;5.70;91.80
22379;DHT22;11357;49.990;7.370;2024-03-06T06:50:15;5.70;91.80
22379;DHT22;11357;49.990;7.370;2024-03-06T06:52:41;5.70;91.80
22379;DHT22;11357;49.990;7.370;2024-03-06T06:55:08;5.70;91.90
22379;DHT22;11357;49.990;7.370;2024-03-06T06:57:37;5.80;92.00
22379;DHT22;11357;49.990;7.370;2024-03-06T07:00:04;5.80;92.00
22379;DHT22;11357;49.990;7.370;2024-03-06T07:02:39;5.90;92.00
22379;DHT22;11357;49.990;7.370;2024-03-06T07:05:07;6.00;92.00
22379;DHT22;11357;49.990;7.370;2024-03-06T07:07:34;6.10;92.00
22379;DHT22;11357;49.990;7.370;2024-03-06T07:10:00;6.20;91.90
22379;DHT22;11357;49.990;7.370;2024-03-06T07:12:26;6.20;91.90
22379;DHT22;11357;49.990;7.370;2024-03-06T07:14:52;6.40;91.90
22379;DHT22;11357;49.990;7.370;2024-03-06T07:17:17;6.40;91.80
22379;DHT22;11357;49.990;7.370;2024-03-06T07:19:43;6.50;91.70
22379;DHT22;11357;49.990;7.370;2024-03-06T07:22:09;6.60;91.70
22379;DHT22;11357;49.990;7.370;2024-03-06T07:24:34;6.70;91.70
22379;DHT22;11357;49.990;7.370;2024-03-06T07:27:00;6.80;91.60
22379;DHT22;11357;49.990;7.370;2024-03-06T07:29:29;6.90;91.50
22379;DHT22;11357;49.990;7.370;2024-03-06T07:31:55;7.00;91.50
22379;DHT22;11357;49.990;7.370;2024-03-06T07:34:20;7.20;91.50
22379;DHT22;11357;49.990;7.370;2024-03-06T07:36:49;7.50;91.50
22379;DHT22;11357;49.990;7.370;2024-03-06T07:39:20;7.80;91.50
22379;DHT22;11357;49.990;7.370;2024-03-06T07:41:46;8.10;91.40
22379;DHT22;11357;49.990;7.370;2024-03-06T07:44:12;8.50;91.30
22379;DHT22;11357;49.990;7.370;2024-03-06T07:46:38;8.90;91.30
22379;DHT22;11357;49.990;7.370;2024-03-06T07:49:04;9.30;91.20
22379;DHT22;11357;49.990;7.370;2024-03-06T07:51:31;9.60;91.10
22379;DHT22;11357;49.990;7.370;2024-03-06T07:53:58;9.90;90.90
22379;DHT22;11357;49.990;7.370;2024-03-06T07:56:25;10.00;90.80
22379;DHT22;11357;49.990;7.370;2024-03-06T07:58:51;10.10;90.80
22379;DHT22;11357;49.990;7.370;2024-03-06T08:01:17;10.20;90.80
22379;DHT22;11357;49.990;7.370;2024-03-06T08:03:43;10.40;90.80
22379;DHT22;11357;49.990;7.370;2024-03-06T08:06:10;10.60;90.70
22379;DHT22;11357;49.990;7.370;2024-03-06T08:08:36;10.80;90.60
22379;DHT22;11357;49.990;7.370;2024-03-06T08:11:02;11.00;90.40
22379;DHT22;11357;49.990;7.370;2024-03-06T08:13:28;11.20;90.30
22379;DHT22;11357;49.990;7.370;2024-03-06T08:15:54;11.50;90.20
22379;DHT22;11357;49.990;7.370;2024-03-06T08:18:20;11.70;90.00
22379;DHT22;11357;49.990;7.370;2024-03-06T08:20:46;11.90;89.90
22379;DHT22;11357;49.990;7.370;2024-03-06T08:23:11;12.00;89.70
22379;DHT22;11357;49.990;7.370;2024-03-06T08:25:37;12.10;89.60
22379;DHT22;11357;49.990;7.370;2024-03-06T08:28:03;12.20;89.60
22379;DHT22;11357;49.990;7.370;2024-03-06T08:30:29;12.40;89.60
22379;DHT22;11357;49.990;7.370;2024-03-06T08:32:58;12.50;89.40
22379;DHT22;11357;49.990;7.370;2024-03-06T08:35:23;12.60;88.80
22379;DHT22;11357;49.990;7.370;2024-03-06T08:37:50;12.50;88.60
22379;DHT22;11357;49.990;7.370;2024-03-06T08:40:17;12.50;88.80
22379;DHT22;11357;49.990;7.370;2024-03-06T08:42:46;12.70;88.80
22379;DHT22;11357;49.990;7.370;2024-03-06T08:45:16;13.00;88.50
22379;DHT22;11357;49.990;7.370;2024-03-06T08:47:43;13.20;88.10
22379;DHT22;11357;49.990;7.370;2024-03-06T08:50:10;13.40;87.80
22379;DHT22;11357;49.990;7.370;2024-03-06T08:52:36;13.60;87.80
22379;DHT22;11357;49.990;7.370;2024-03-06T08:55:02;13.90;87.50
22379;DHT22;11357;49.990;7.370;2024-03-06T08:57:32;14.10;87.10
22379;DHT22;11357;49.990;7.370;2024-03-06T08:59:58;14.30;86.50
22379;DHT22;11357;49.990;7.370;2024-03-06T09:02:24;14.40;86.20
22379;DHT22;11357;49.990;7.370;2024-03-06T09:04:51;14.60;85.90
22379;DHT22;11357;49.990;7.370;2024-03-06T09:07:17;14.80;85.50
22379;DHT22;11357;49.990;7.370;2024-03-06T09:09:43;15.00;84.90
22379;DHT22;11357;49.990;7.370;2024-03-06T09:12:10;15.10;84.40
22379;DHT22;11357;49.990;7.370;2024-03-06T09:14:39;15.20;84.10
22379;DHT22;11357;49.990;7.370;2024-03-06T09:17:05;15.30;83.60
22379;DHT22;11357;49.990;7.370;2024-03-06T09:19:32;15.50;83.50
22379;DHT22;11357;49.990;7.370;2024-03-06T09:21:58;15.70;82.90
22379;DHT22;11357;49.990;7.370;2024-03-06T09:24:24;15.80;82.80
22379;DHT22;11357;49.990;7.370;2024-03-06T09:26:51;15.90;81.50
22379;DHT22;11357;49.990;7.370;2024-03-06T09:29:16;15.70;80.60
22379;DHT22;11357;49.990;7.370;2024-03-06T09:31:42;15.60;80.80
22379;DHT22;11357;49.990;7.370;2024-03-06T09:34:09;15.80;80.40
22379;DHT22;11357;49.990;7.370;2024-03-06T09:36:48;15.80;78.70
22379;DHT22;11357;49.990;7.370;2024-03-06T09:39:15;15.60;78.30
22379;DHT22;11357;49.990;7.370;2024-03-06T09:41:50;15.50;78.20
22379;DHT22;11357;49.990;7.370;2024-03-06T09:44:17;15.60;78.50
22379;DHT22;11357;49.990;7.370;2024-03-06T09:46:44;15.90;78.40
22379;DHT22;11357;49.990;7.370;2024-03-06T09:49:15;16.10;77.70
22379;DHT22;11357;49.990;7.370;2024-03-06T09:51:48;16.10;77.00
22379;DHT22;11357;49.990;7.370;2024-03-06T09:54:19;16.30;76.70
22379;DHT22;11357;49.990;7.370;2024-03-06T09:56:46;16.60;76.90
22379;DHT22;11357;49.990;7.370;2024-03-06T09:59:12;17.00;76.50
22379;DHT22;11357;49.990;7.370;2024-03-06T10:01:48;17.30;75.40
22379;DHT22;11357;49.990;7.370;2024-03-06T10:04:24;17.60;74.80
22379;DHT22;11357;49.990;7.370;2024-03-06T10:06:59;17.80;73.40
22379;DHT22;11357;49.990;7.370;2024-03-06T10:09:26;18.00;72.90
22379;DHT22;11357;49.990;7.370;2024-03-06T10:11:52;18.20;72.30
22379;DHT22;11357;49.990;7.370;2024-03-06T10:14:19;18.50;72.00
22379;DHT22;11357;49.990;7.370;2024-03-06T10:16:58;18.70;71.00
22379;DHT22;11357;49.990;7.370;2024-03-06T10:19:25;18.70;69.70
22379;DHT22;11357;49.990;7.370;2024-03-06T10:21:53;18.80;69.30
22379;DHT22;11357;49.990;7.370;2024-03-06T10:24:29;18.70;68.30
22379;DHT22;11357;49.990;7.370;2024-03-06T10:26:56;18.60;67.10
22379;DHT22;11357;49.990;7.370;2024-03-06T10:29:26;18.60;66.40
22379;DHT22;11357;49.990;7.370;2024-03-06T10:31:54;18.90;66.20
22379;DHT22;11357;49.990;7.370;2024-03-06T10:34:21;19.00;64.30
22379;DHT22;11357;49.990;7.370;2024-03-06T10:36:54;18.80;63.10
22379;DHT22;11357;49.990;7.370;2024-03-06T10:39:20;18.90;62.70
22379;DHT22;11357;49.990;7.370;2024-03-06T10:41:55;19.00;61.70
22379;DHT22;11357;49.990;7.370;2024-03-06T10:44:23;19.00;61.30
22379;DHT22;11357;49.990;7.370;2024-03-06T10:47:05;18.90;60.70
22379;DHT22;11357;49.990;7.370;2024-03-06T10:49:32;18.80;60.30
22379;DHT22;11357;49.990;7.370;2024-03-06T10:52:04;18.80;59.40
22379;DHT22;11357;49.990;7.370;2024-03-06T10:54:35;19.00;58.70
22379;DHT22;11357;49.990;7.370;2024-03-06T10:57:04;19.20;58.60
22379;DHT22;11357;49.990;7.370;2024-03-06T10:59:30;19.10;58.00
22379;DHT22;11357;49.990;7.370;2024-03-06T11:01:57;19.10;57.10
22379;DHT22;11357;49.990;7.370;2024-03-06T11:04:25;19.00;56.90
22379;DHT22;11357;49.990;7.370;2024-03-06T11:06:54;18.70;57.10
22379;DHT22;11357;49.990;7.370;2024-03-06T11:09:20;18.50;57.70
22379;DHT22;11357;49.990;7.370;2024-03-06T11:11:50;18.20;58.30
22379;DHT22;11357;49.990;7.370;2024-03-06T11:14:17;17.70;59.40
22379;DHT22;11357;49.990;7.370;2024-03-06T11:17:16;17.20;60.50
22379;DHT22;11357;49.990;7.370;2024-03-06T11:28:17;17.10;61.00
22379;DHT22;11357;49.990;7.370;2024-03-06T11:36:19;18.60;58.70
22379;DHT22;11357;49.990;7.370;2024-03-06T11:39:08;18.90;57.80
22379;DHT22;11357;49.990;7.370;2024-03-06T11:44:12;18.60;57.20
22379;DHT22;11357;49.990;7.370;2024-03-06T11:46:50;18.40;57.60
22379;DHT22;11357;49.990;7.370;2024-03-06T11:49:19;17.90;57.70
22379;DHT22;11357;49.990;7.370;2024-03-06T11:51:52;17.50;58.90
22379;DHT22;11357;49.990;7.370;2024-03-06T11:54:18;17.10;60.30
22379;DHT22;11357;49.990;7.370;2024-03-06T11:56:49;17.00;61.20
22379;DHT22;11357;49.990;7.370;2024-03-06T11:59:21;17.20;60.80
22379;DHT22;11357;49.990;7.370;2024-03-06T12:01:48;17.50;60.80
22379;DHT22;11357;49.990;7.370;2024-03-06T12:04:14;17.70;60.30
22379;DHT22;11357;49.990;7.370;2024-03-06T12:06:39;17.70;60.40
22379;DHT22;11357;49.990;7.370;2024-03-06T12:09:05;17.30;60.40
22379;DHT22;11357;49.990;7.370;2024-03-06T12:11:31;17.00;61.10
22379;DHT22;11357;49.990;7.370;2024-03-06T12:13:57;16.60;61.70
22379;DHT22;11357;49.990;7.370;2024-03-06T12:16:23;16.40;62.30
22379;DHT22;11357;49.990;7.370;2024-03-06T12:18:59;16.20;62.80
22379;DHT22;11357;49.990;7.370;2024-03-06T12:21:34;16.00;63.30
22379;DHT22;11357;49.990;7.370;2024-03-06T12:24:08;15.90;64.00
22379;DHT22;11357;49.990;7.370;2024-03-06T12:26:34;15.90;64.30
22379;DHT22;11357;49.990;7.370;2024-03-06T12:29:10;15.80;64.40
22379;DHT22;11357;49.990;7.370;2024-03-06T12:31:38;15.70;65.10
22379;DHT22;11357;49.990;7.370;2024-03-06T12:34:05;15.70;65.50
22379;DHT22;11357;49.990;7.370;2024-03-06T12:36:32;15.60;65.50
22379;DHT22;11357;49.990;7.370;2024-03-06T12:38:59;15.40;65.70
22379;DHT22;11357;49.990;7.370;2024-03-06T12:41:26;15.30;66.20
22379;DHT22;11357;49.990;7.370;2024-03-06T12:43:52;15.30;66.40
22379;DHT22;11357;49.990;7.370;2024-03-06T12:46:18;15.20;66.10
22379;DHT22;11357;49.990;7.370;2024-03-06T12:48:44;15.10;66.50
22379;DHT22;11357;49.990;7.370;2024-03-06T12:51:11;15.00;66.30
22379;DHT22;11357;49.990;7.370;2024-03-06T12:53:36;14.90;66.70
22379;DHT22;11357;49.990;7.370;2024-03-06T12:56:02;14.90;66.90
22379;DHT22;11357;49.990;7.370;2024-03-06T12:58:28;14.90;67.10
22379;DHT22;11357;49.990;7.370;2024-03-06T13:00:56;14.90;67.20
22379;DHT22;11357;49.990;7.370;2024-03-06T13:03:23;14.90;67.20
22379;DHT22;11357;49.990;7.370;2024-03-06T13:05:48;14.90;67.20
22379;DHT22;11357;49.990;7.370;2024-03-06T13:08:14;14.80;66.90
22379;DHT22;11357;49.990;7.370;2024-03-06T13:10:41;14.90;66.60
22379;DHT22;11357;49.990;7.370;2024-03-06T13:13:06;15.00;66.10
22379;DHT22;11357;49.990;7.370;2024-03-06T13:15:33;15.00;66.00
22379;DHT22;11357;49.990;7.370;2024-03-06T13:18:02;15.10;66.50
22379;DHT22;11357;49.990;7.370;2024-03-06T13:20:32;15.20;65.50
22379;DHT22;11357;49.990;7.370;2024-03-06T13:22:58;15.40;65.50
22379;DHT22;11357;49.990;7.370;2024-03-06T13:25:23;15.70;65.10
22379;DHT22;11357;49.990;7.370;2024-03-06T13:27:50;15.80;64.60
22379;DHT22;11357;49.990;7.370;2024-03-06T13:30:19;15.90;64.00
22379;DHT22;11357;49.990;7.370;2024-03-06T13:32:45;15.90;64.20
22379;DHT22;11357;49.990;7.370;2024-03-06T13:35:12;16.00;64.00
22379;DHT22;11357;49.990;7.370;2024-03-06T13:37:42;16.20;64.20
22379;DHT22;11357;49.990;7.370;2024-03-06T13:40:08;16.30;63.60
22379;DHT22;11357;49.990;7.370;2024-03-06T13:42:37;16.30;63.50
22379;DHT22;11357;49.990;7.370;2024-03-06T13:45:03;16.20;63.50
22379;DHT22;11357;49.990;7.370;2024-03-06T13:47:30;16.10;63.80
22379;DHT22;11357;49.990;7.370;2024-03-06T13:49:56;15.90;63.70
22379;DHT22;11357;49.990;7.370;2024-03-06T13:52:21;15.60;64.00
22379;DHT22;11357;49.990;7.370;2024-03-06T13:54:49;15.40;64.50
22379;DHT22;11357;49.990;7.370;2024-03-06T13:57:15;15.30;65.10
22379;DHT22;11357;49.990;7.370;2024-03-06T13:59:41;15.20;65.10
22379;DHT22;11357;49.990;7.370;2024-03-06T14:02:07;15.10;65.30
22379;DHT22;11357;49.990;7.370;2024-03-06T14:04:33;15.00;65.40
22379;DHT22;11357;49.990;7.370;2024-03-06T14:06:59;15.00;65.70
22379;DHT22;11357;49.990;7.370;2024-03-06T14:09:26;15.00;65.80
22379;DHT22;11357;49.990;7.370;2024-03-06T14:11:52;15.10;65.90
22379;DHT22;11357;49.990;7.370;2024-03-06T14:14:18;15.00;65.80
22379;DHT22;11357;49.990;7.370;2024-03-06T14:16:45;15.00;66.00
22379;DHT22;11357;49.990;7.370;2024-03-06T14:19:11;15.00;66.30
22379;DHT22;11357;49.990;7.370;2024-03-06T14:21:37;15.00;66.00
22379;DHT22;11357;49.990;7.370;2024-03-06T14:24:04;14.80;66.20
22379;DHT22;11357;49.990;7.370;2024-03-06T14:26:31;14.80;66.60
22379;DHT22;11357;49.990;7.370;2024-03-06T14:28:58;14.80;66.90
22379;DHT22;11357;49.990;7.370;2024-03-06T14:31:24;14.80;66.90
22379;DHT22;11357;49.990;7.370;2024-03-06T14:33:50;14.70;66.70
22379;DHT22;11357;49.990;7.370;2024-03-06T14:36:19;14.70;66.70
22379;DHT22;11357;49.990;7.370;2024-03-06T14:38:47;14.60;66.50
22379;DHT22;11357;49.990;7.370;2024-03-06T14:41:12;14.60;66.40
22379;DHT22;11357;49.990;7.370;2024-03-06T14:43:38;14.50;66.40
22379;DHT22;11357;49.990;7.370;2024-03-06T14:46:07;14.40;66.60
22379;DHT22;11357;49.990;7.370;2024-03-06T14:48:34;14.30;66.90
22379;DHT22;11357;49.990;7.370;2024-03-06T14:51:00;14.30;67.30
22379;DHT22;11357;49.990;7.370;2024-03-06T14:53:26;14.20;67.80
22379;DHT22;11357;49.990;7.370;2024-03-06T14:55:52;14.20;68.00
22379;DHT22;11357;49.990;7.370;2024-03-06T14:58:18;14.10;68.10
22379;DHT22;11357;49.990;7.370;2024-03-06T15:00:44;14.10;68.60
22379;DHT22;11357;49.990;7.370;2024-03-06T15:03:10;14.10;68.80
22379;DHT22;11357;49.990;7.370;2024-03-06T15:05:36;14.10;69.20
22379;DHT22;11357;49.990;7.370;2024-03-06T15:08:01;14.10;69.40
22379;DHT22;11357;49.990;7.370;2024-03-06T15:10:29;14.00;69.40
22379;DHT22;11357;49.990;7.370;2024-03-06T15:12:57;13.90;69.40
22379;DHT22;11357;49.990;7.370;2024-03-06T15:15:23;13.90;69.40
22379;DHT22;11357;49.990;7.370;2024-03-06T15:17:48;13.80;69.60
22379;DHT22;11357;49.990;7.370;2024-03-06T15:20:14;13.80;70.00
22379;DHT22;11357;49.990;7.370;2024-03-06T15:22:40;13.70;70.30
22379;DHT22;11357;49.990;7.370;2024-03-06T15:25:12;13.70;70.60
22379;DHT22;11357;49.990;7.370;2024-03-06T15:27:39;13.70;70.70
22379;DHT22;11357;49.990;7.370;2024-03-06T15:30:08;13.70;70.80
22379;DHT22;11357;49.990;7.370;2024-03-06T15:32:35;13.70;70.80
22379;DHT22;11357;49.990;7.370;2024-03-06T15:35:01;13.70;70.80
22379;DHT22;11357;49.990;7.370;2024-03-06T16:25:53;13.50;72.80
22379;DHT22;11357;49.990;7.370;2024-03-06T16:28:18;13.50;72.90
22379;DHT22;11357;49.990;7.370;2024-03-06T16:30:44;13.50;73.10
22379;DHT22;11357;49.990;7.370;2024-03-06T16:33:10;13.50;73.20
22379;DHT22;11357;49.990;7.370;2024-03-06T16:35:35;13.50;73.30
22379;DHT22;11357;49.990;7.370;2024-03-06T16:38:01;13.50;73.40
22379;DHT22;11357;49.990;7.370;2024-03-06T16:40:27;13.50;73.50
22379;DHT22;11357;49.990;7.370;2024-03-06T16:42:53;13.50;73.50
22379;DHT22;11357;49.990;7.370;2024-03-06T16:45:18;13.50;73.20
22379;DHT22;11357;49.990;7.370;2024-03-06T16:47:44;13.50;73.20
22379;DHT22;11357;49.990;7.370;2024-03-06T16:50:10;13.50;73.30
22379;DHT22;11357;49.990;7.370;2024-03-06T16:52:36;13.40;73.30
22379;DHT22;11357;49.990;7.370;2024-03-06T16:55:02;13.40;73.50
22379;DHT22;11357;49.990;7.370;2024-03-06T16:57:28;13.30;73.60
22379;DHT22;11357;49.990;7.370;2024-03-06T16:59:54;13.20;74.10
22379;DHT22;11357;49.990;7.370;2024-03-06T17:02:20;13.20;74.60
22379;DHT22;11357;49.990;7.370;2024-03-06T17:04:45;13.10;75.10
22379;DHT22;11357;49.990;7.370;2024-03-06T17:07:11;13.10;75.40
22379;DHT22;11357;49.990;7.370;2024-03-06T17:09:38;13.10;75.70
22379;DHT22;11357;49.990;7.370;2024-03-06T17:12:05;13.10;75.90
22379;DHT22;11357;49.990;7.370;2024-03-06T17:14:33;13.10;76.00
22379;DHT22;11357;49.990;7.370;2024-03-06T17:16:58;13.00;76.10
22379;DHT22;11357;49.990;7.370;2024-03-06T17:19:24;13.00;76.20
22379;DHT22;11357;49.990;7.370;2024-03-06T17:21:50;13.00;76.10
22379;DHT22;11357;49.990;7.370;2024-03-06T17:24:16;13.00;76.20
22379;DHT22;11357;49.990;7.370;2024-03-06T17:26:42;13.00;76.10
22379;DHT22;11357;49.990;7.370;2024-03-06T17:29:07;13.00;76.00
22379;DHT22;11357;49.990;7.370;2024-03-06T17:31:33;12.90;75.90
22379;DHT22;11357;49.990;7.370;2024-03-06T17:34:04;12.90;76.00
22379;DHT22;11357;49.990;7.370;2024-03-06T17:36:31;12.80;76.10
22379;DHT22;11357;49.990;7.370;2024-03-06T17:38:59;12.80;76.20
22379;DHT22;11357;49.990;7.370;2024-03-06T17:41:24;12.70;76.30
22379;DHT22;11357;49.990;7.370;2024-03-06T17:43:50;12.60;76.40
22379;DHT22;11357;49.990;7.370;2024-03-06T17:46:16;12.60;76.60
22379;DHT22;11357;49.990;7.370;2024-03-06T17:48:41;12.60;76.60
22379;DHT22;11357;49.990;7.370;2024-03-06T17:51:07;12.60;76.70
22379;DHT22;11357;49.990;7.370;2024-03-06T17:53:33;12.60;76.70
22379;DHT22;11357;49.990;7.370;2024-03-06T17:55:59;12.70;76.80
22379;DHT22;11357;49.990;7.370;2024-03-06T17:58:25;12.70;77.00
22379;DHT22;11357;49.990;7.370;2024-03-06T18:00:51;12.80;77.00
22379;DHT22;11357;49.990;7.370;2024-03-06T18:03:16;12.80;76.80
22379;DHT22;11357;49.990;7.370;2024-03-06T18:05:44;12.90;76.80
22379;DHT22;11357;49.990;7.370;2024-03-06T18:08:10;12.80;76.70
22379;DHT22;11357;49.990;7.370;2024-03-06T18:10:35;12.80;76.90
22379;DHT22;11357;49.990;7.370;2024-03-06T18:13:02;12.70;76.90
22379;DHT22;11357;49.990;7.370;2024-03-06T18:15:28;12.60;77.00
22379;DHT22;11357;49.990;7.370;2024-03-06T18:17:54;12.60;77.30
22379;DHT22;11357;49.990;7.370;2024-03-06T18:20:20;12.50;77.60
22379;DHT22;11357;49.990;7.370;2024-03-06T18:22:46;12.50;77.80